Time;durP1;ratioP1;P1;durP2;ratioP2;P2;SDS_P1;SDS_P2;PMS_P1;PMS_P2;Temp;Humidity;BMP_temperature;BMP_pressure;BME280_temperature;BME280_humidity;BME280_pressure;Samples;Min_cycle;Max_cycle;Signal;HPM_P1;HPM_P2
2024/02/11 00:00:15;;;;;;;33.42;17.55;;;;;;;;;;5110932;28;20040;-60
2024/02/11 00:02:40;;;;;;;31.40;18.77;;;;;;;;;;5114515;28;20024;-60
2024/02/11 00:05:08;;;;;;;30.60;18.67;;;;;;;;;;5116124;28;20040;-60
2024/02/11 00:07:39;;;;;;;33.67;19.30;;;;;;;;;;5127093;28;20032;-60
2024/02/11 00:10:08;;;;;;;33.33;19.13;;;;;;;;;;5117351;28;20280;-58
2024/02/11 00:12:35;;;;;;;31.97;18.37;;;;;;;;;;5105792;28;20370;-59
2024/02/11 00:15:01;;;;;;;;;;;;;;;;;;5122280;28;20259;-59
2024/02/11 00:17:27;;;;;;;136.17;61.10;;;;;;;;;;5110691;28;19908;-58
2024/02/11 00:19:52;;;;;;;193.03;84.03;;;;;;;;;;5127744;28;20262;-60
2024/02/11 00:22:17;;;;;;;33.43;19.53;;;;;;;;;;5108606;28;20272;-61
2024/02/11 00:24:43;;;;;;;34.30;18.85;;;;;;;;;;5116048;28;20029;-59
2024/02/11 00:27:12;;;;;;;32.60;20.03;;;;;;;;;;5121617;28;20059;-57
2024/02/11 00:29:38;;;;;;;32.33;19.40;;;;;;;;;;5119667;28;20024;-60
2024/02/11 00:32:03;;;;;;;33.45;19.95;;;;;;;;;;5115938;28;20314;-57
2024/02/11 00:34:31;;;;;;;32.70;18.83;;;;;;;;;;5116301;28;20052;-57
2024/02/11 00:36:57;;;;;;;31.07;18.50;;;;;;;;;;5128657;28;20435;-60
2024/02/11 00:39:23;;;;;;;35.53;18.95;;;;;;;;;;5117421;28;20257;-60
2024/02/11 00:41:48;;;;;;;38.10;20.05;;;;;;;;;;5116377;28;20040;-58
2024/02/11 00:44:15;;;;;;;33.97;18.95;;;;;;;;;;5107937;28;20031;-56
2024/02/11 00:46:40;;;;;;;31.02;17.85;;;;;;;;;;5116408;28;20028;-60
2024/02/11 00:49:07;;;;;;;29.15;17.52;;;;;;;;;;5109233;28;20039;-60
2024/02/11 00:51:33;;;;;;;33.03;19.47;;;;;;;;;;5115991;28;20051;-59
2024/02/11 00:53:59;;;;;;;32.28;18.83;;;;;;;;;;5107438;28;20266;-59
2024/02/11 00:56:26;;;;;;;31.53;18.93;;;;;;;;;;5111945;28;20024;-59
2024/02/11 00:58:51;;;;;;;28.93;18.00;;;;;;;;;;5110046;28;20261;-59
2024/02/11 01:01:16;;;;;;;29.73;18.70;;;;;;;;;;5114548;28;20020;-59
2024/02/11 01:03:42;;;;;;;36.40;19.00;;;;;;;;;;5114952;28;20028;-59
2024/02/11 01:06:10;;;;;;;31.38;18.52;;;;;;;;;;5104206;28;20025;-59
2024/02/11 01:08:35;;;;;;;36.67;18.23;;;;;;;;;;5105623;28;20048;-60
2024/02/11 01:11:01;;;;;;;31.77;18.13;;;;;;;;;;5115703;28;20325;-59
2024/02/11 01:13:26;;;;;;;30.73;18.33;;;;;;;;;;5100978;28;20387;-59
2024/02/11 01:15:52;;;;;;;33.15;17.58;;;;;;;;;;5104503;28;20024;-59
2024/02/11 01:18:18;;;;;;;31.83;18.60;;;;;;;;;;5111137;28;20028;-56
2024/02/11 01:20:43;;;;;;;29.90;17.52;;;;;;;;;;5108051;28;20050;-59
2024/02/11 01:23:09;;;;;;;27.65;17.63;;;;;;;;;;5105907;28;20057;-59
2024/02/11 01:25:35;;;;;;;30.60;19.10;;;;;;;;;;5115573;28;20031;-59
2024/02/11 01:28:00;;;;;;;30.52;17.70;;;;;;;;;;5112666;28;20323;-57
2024/02/11 01:30:26;;;;;;;29.73;18.33;;;;;;;;;;5115455;28;20036;-58
2024/02/11 01:32:53;;;;;;;41.37;21.90;;;;;;;;;;5108263;28;20041;-58
2024/02/11 01:35:19;;;;;;;51.13;28.20;;;;;;;;;;5099857;28;20292;-58
2024/02/11 01:37:44;;;;;;;38.97;21.90;;;;;;;;;;5105358;28;20266;-59
2024/02/11 01:40:13;;;;;;;34.40;19.33;;;;;;;;;;5118239;28;20115;-59
2024/02/11 01:42:39;;;;;;;44.60;21.37;;;;;;;;;;5119895;28;20036;-59
2024/02/11 01:45:05;;;;;;;39.43;20.33;;;;;;;;;;5114886;28;20298;-60
2024/02/11 01:47:30;;;;;;;36.58;19.13;;;;;;;;;;5117883;28;20051;-59
2024/02/11 01:49:56;;;;;;;31.98;18.17;;;;;;;;;;5112312;28;20036;-58
2024/02/11 01:52:23;;;;;;;33.47;19.43;;;;;;;;;;5108208;28;20062;-60
2024/02/11 01:54:48;;;;;;;30.83;18.57;;;;;;;;;;5111616;28;20293;-59
2024/02/11 01:57:13;;;;;;;32.13;17.90;;;;;;;;;;5109550;28;20325;-59
2024/02/11 01:59:39;;;;;;;29.85;17.42;;;;;;;;;;5105776;28;20074;-58
2024/02/11 02:02:13;;;;;;;31.83;17.40;;;;;;;;;;5108091;28;20047;-57
2024/02/11 02:04:39;;;;;;;32.00;18.10;;;;;;;;;;5102243;28;20040;-59
2024/02/11 02:07:05;;;;;;;30.17;18.47;;;;;;;;;;5108190;28;20269;-57
2024/02/11 02:09:32;;;;;;;30.17;18.38;;;;;;;;;;5102800;28;20326;-59
2024/02/11 02:11:58;;;;;;;32.40;18.93;;;;;;;;;;5112955;28;20044;-57
2024/02/11 02:14:24;;;;;;;29.92;17.42;;;;;;;;;;5111203;28;20268;-59
2024/02/11 02:16:49;;;;;;;32.13;17.63;;;;;;;;;;5114373;28;20035;-58
2024/02/11 02:19:15;;;;;;;34.08;18.15;;;;;;;;;;5118103;28;20548;-59
2024/02/11 02:21:47;;;;;;;31.83;18.30;;;;;;;;;;5113478;28;20042;-59
2024/02/11 02:24:13;;;;;;;30.03;17.67;;;;;;;;;;5112513;28;20039;-59
2024/02/11 02:26:39;;;;;;;27.98;16.65;;;;;;;;;;5113149;28;20260;-61
2024/02/11 02:29:04;;;;;;;29.77;17.40;;;;;;;;;;5106508;28;20043;-60
2024/02/11 02:31:29;;;;;;;28.03;16.93;;;;;;;;;;5109384;28;20040;-60
2024/02/11 02:33:55;;;;;;;26.93;17.43;;;;;;;;;;5101909;28;20062;-60
2024/02/11 02:36:20;;;;;;;26.40;16.75;;;;;;;;;;5099698;28;20086;-60
2024/02/11 02:38:46;;;;;;;29.47;19.27;;;;;;;;;;5125491;28;20028;-58
2024/02/11 02:41:11;;;;;;;30.93;17.30;;;;;;;;;;5102156;28;20024;-59
2024/02/11 02:43:36;;;;;;;32.13;18.23;;;;;;;;;;5139049;27;20058;-58
2024/02/11 02:46:02;;;;;;;31.33;18.10;;;;;;;;;;5103363;28;20050;-59
2024/02/11 02:48:28;;;;;;;29.77;18.45;;;;;;;;;;5115831;28;20031;-55
2024/02/11 02:50:54;;;;;;;29.60;18.02;;;;;;;;;;5107737;28;20063;-59
2024/02/11 02:53:19;;;;;;;31.70;18.97;;;;;;;;;;5113419;28;20036;-57
2024/02/11 02:55:46;;;;;;;29.90;18.03;;;;;;;;;;5113487;28;20264;-59
2024/02/11 02:58:13;;;;;;;32.47;19.60;;;;;;;;;;5114710;28;20066;-59
2024/02/11 03:00:40;;;;;;;35.03;19.77;;;;;;;;;;5111206;28;20257;-59
2024/02/11 03:03:06;;;;;;;31.95;19.63;;;;;;;;;;5113952;28;20327;-59
2024/02/11 03:05:34;;;;;;;37.65;19.42;;;;;;;;;;5112559;28;20043;-59
2024/02/11 03:07:59;;;;;;;36.10;21.67;;;;;;;;;;5114172;28;20024;-60
2024/02/11 03:10:25;;;;;;;37.58;21.40;;;;;;;;;;5109110;28;20291;-58
2024/02/11 03:12:50;;;;;;;36.08;21.13;;;;;;;;;;5113674;28;20121;-60
2024/02/11 03:15:16;;;;;;;36.92;22.02;;;;;;;;;;5112008;28;20020;-59
2024/02/11 03:17:42;;;;;;;35.97;20.57;;;;;;;;;;5114335;28;20054;-59
2024/02/11 03:20:08;;;;;;;40.13;21.63;;;;;;;;;;5107016;28;20328;-58
2024/02/11 03:22:34;;;;;;;33.67;21.20;;;;;;;;;;5101538;28;20252;-60
2024/02/11 03:24:59;;;;;;;34.70;20.17;;;;;;;;;;5104762;28;20089;-59
2024/02/11 03:27:24;;;;;;;37.10;21.10;;;;;;;;;;5107536;28;20032;-59
2024/02/11 03:29:49;;;;;;;35.63;21.27;;;;;;;;;;5105832;28;20061;-59
2024/02/11 03:32:15;;;;;;;49.78;24.05;;;;;;;;;;5113016;28;20067;-59
2024/02/11 03:34:41;;;;;;;35.58;21.77;;;;;;;;;;5114106;28;20032;-57
2024/02/11 03:37:07;;;;;;;35.17;20.50;;;;;;;;;;5111679;28;20118;-57
2024/02/11 03:39:34;;;;;;;32.65;21.02;;;;;;;;;;5098498;28;20265;-61
2024/02/11 03:41:59;;;;;;;;;;;;;;;;;;5113462;28;20042;-58
2024/02/11 03:44:24;;;;;;;35.70;20.23;;;;;;;;;;5114066;28;19908;-59
2024/02/11 03:46:50;;;;;;;33.78;20.58;;;;;;;;;;5113111;28;20096;-57
2024/02/11 03:49:16;;;;;;;32.73;21.33;;;;;;;;;;5104349;28;20067;-59
2024/02/11 03:51:41;;;;;;;36.13;21.33;;;;;;;;;;5111287;28;20046;-58
2024/02/11 03:54:07;;;;;;;36.53;21.27;;;;;;;;;;5113963;28;20055;-59
2024/02/11 03:56:34;;;;;;;35.10;20.67;;;;;;;;;;5109051;28;20028;-60
2024/02/11 03:58:59;;;;;;;35.97;20.50;;;;;;;;;;5120643;28;20028;-58
2024/02/11 04:01:27;;;;;;;37.10;21.23;;;;;;;;;;5117376;28;20045;-59
2024/02/11 04:03:52;;;;;;;36.67;20.63;;;;;;;;;;5117348;28;20035;-56
2024/02/11 04:06:20;;;;;;;35.95;21.45;;;;;;;;;;5116964;28;20256;-56
2024/02/11 04:08:46;;;;;;;36.67;21.37;;;;;;;;;;5108747;28;20052;-58
2024/02/11 04:11:12;;;;;;;35.05;21.08;;;;;;;;;;5113552;28;20276;-60
2024/02/11 04:13:38;;;;;;;40.75;21.50;;;;;;;;;;5107536;28;20043;-60
2024/02/11 04:16:15;;;;;;;37.17;21.73;;;;;;;;;;5111572;28;20032;-61
2024/02/11 04:18:47;;;;;;;30.53;19.47;;;;;;;;;;5118943;28;20028;-60
2024/02/11 04:21:15;;;;;;;36.93;20.37;;;;;;;;;;5100299;28;20020;-59
2024/02/11 04:23:40;;;;;;;33.57;19.50;;;;;;;;;;5109967;28;20268;-63
2024/02/11 04:26:10;;;;;;;32.63;20.10;;;;;;;;;;5116485;28;20279;-61
2024/02/11 04:28:36;;;;;;;35.73;20.43;;;;;;;;;;5126976;28;20290;-59
2024/02/11 04:31:08;;;;;;;33.80;19.80;;;;;;;;;;5116578;28;20268;-59
2024/02/11 04:33:36;;;;;;;33.97;19.93;;;;;;;;;;5116437;28;20039;-60
2024/02/11 04:36:04;;;;;;;36.47;20.97;;;;;;;;;;5113775;28;20268;-57
2024/02/11 04:38:30;;;;;;;32.77;19.63;;;;;;;;;;5121744;28;20255;-63
2024/02/11 04:40:56;;;;;;;31.25;19.70;;;;;;;;;;5116487;28;20287;-61
2024/02/11 04:43:22;;;;;;;35.55;20.92;;;;;;;;;;5108344;28;20032;-60
2024/02/11 04:45:48;;;;;;;34.70;19.77;;;;;;;;;;5128559;28;20032;-59
2024/02/11 04:48:19;;;;;;;38.17;21.60;;;;;;;;;;5116038;28;20070;-59
2024/02/11 04:50:46;;;;;;;34.30;20.80;;;;;;;;;;5115011;28;20032;-61
2024/02/11 04:53:11;;;;;;;33.85;19.88;;;;;;;;;;5116379;28;20272;-58
2024/02/11 04:55:40;;;;;;;31.42;20.27;;;;;;;;;;5111870;28;20084;-60
2024/02/11 04:58:16;;;;;;;32.10;19.27;;;;;;;;;;5128846;28;20030;-59
2024/02/11 05:00:44;;;;;;;34.92;20.83;;;;;;;;;;5116237;28;20253;-58
2024/02/11 05:03:11;;;;;;;35.80;20.73;;;;;;;;;;5105914;28;20035;-57
2024/02/11 05:05:41;;;;;;;37.20;21.80;;;;;;;;;;5108587;28;20303;-59
2024/02/11 05:08:07;;;;;;;41.50;21.60;;;;;;;;;;5117481;28;20267;-59
2024/02/11 05:10:34;;;;;;;40.13;20.20;;;;;;;;;;5111139;28;20260;-60
2024/02/11 05:13:04;;;;;;;35.78;20.70;;;;;;;;;;5110117;28;20294;-60
2024/02/11 05:15:33;;;;;;;38.00;22.30;;;;;;;;;;5109844;28;20117;-60
2024/02/11 05:18:00;;;;;;;38.10;20.93;;;;;;;;;;5107738;28;20257;-60
2024/02/11 05:20:29;;;;;;;38.47;22.83;;;;;;;;;;5121119;28;20253;-58
2024/02/11 05:22:55;;;;;;;38.83;22.47;;;;;;;;;;5119354;28;20260;-59
2024/02/11 05:25:21;;;;;;;38.45;21.90;;;;;;;;;;5122486;28;20268;-59
2024/02/11 05:27:51;;;;;;;40.95;21.92;;;;;;;;;;5101316;28;20031;-59
2024/02/11 05:30:17;;;;;;;43.40;24.07;;;;;;;;;;5116376;28;20054;-59
2024/02/11 05:32:45;;;;;;;39.60;23.20;;;;;;;;;;5115293;28;20273;-59
2024/02/11 05:35:13;;;;;;;45.37;24.73;;;;;;;;;;5108095;28;20275;-58
2024/02/11 05:37:40;;;;;;;42.07;23.43;;;;;;;;;;5112335;28;20260;-60
2024/02/11 05:40:09;;;;;;;47.78;26.55;;;;;;;;;;5126310;28;20271;-59
2024/02/11 05:42:37;;;;;;;46.10;25.70;;;;;;;;;;5115573;28;20082;-60
2024/02/11 05:45:02;;;;;;;43.10;24.50;;;;;;;;;;5114276;28;20280;-61
2024/02/11 05:47:29;;;;;;;54.50;25.75;;;;;;;;;;5115085;28;20320;-60
2024/02/11 05:49:54;;;;;;;61.15;27.95;;;;;;;;;;5122444;28;20051;-61
2024/02/11 05:52:20;;;;;;;49.85;27.13;;;;;;;;;;5116181;28;20140;-60
2024/02/11 05:54:47;;;;;;;54.72;28.58;;;;;;;;;;5102506;28;20052;-61
2024/02/11 05:57:13;;;;;;;53.03;26.87;;;;;;;;;;5108406;28;20036;-61
2024/02/11 05:59:39;;;;;;;35.58;20.52;;;;;;;;;;5119121;28;20666;-61
2024/02/11 06:02:05;;;;;;;31.10;16.87;;;;;;;;;;5116265;28;20032;-61
2024/02/11 06:04:31;;;;;;;32.05;14.25;;;;;;;;;;5110571;28;20329;-60
2024/02/11 06:06:56;;;;;;;24.47;11.40;;;;;;;;;;5121867;28;20099;-61
2024/02/11 06:09:21;;;;;;;22.13;10.33;;;;;;;;;;5120337;28;20028;-61
2024/02/11 06:11:48;;;;;;;18.27;8.77;;;;;;;;;;5103507;28;20091;-61
2024/02/11 06:14:13;;;;;;;22.03;7.90;;;;;;;;;;5111869;28;20020;-60
2024/02/11 06:16:40;;;;;;;23.90;9.10;;;;;;;;;;5114416;28;20287;-62
2024/02/11 06:19:06;;;;;;;27.17;10.70;;;;;;;;;;5103788;28;20036;-61
2024/02/11 06:21:31;;;;;;;29.10;9.93;;;;;;;;;;5112361;28;20100;-61
2024/02/11 06:23:57;;;;;;;24.92;10.32;;;;;;;;;;5117101;28;20035;-62
2024/02/11 06:26:22;;;;;;;31.83;12.63;;;;;;;;;;5107135;28;20033;-60
2024/02/11 06:28:48;;;;;;;34.33;14.85;;;;;;;;;;5110689;28;20024;-61
2024/02/11 06:31:13;;;;;;;38.80;16.27;;;;;;;;;;5110928;28;20037;-61
2024/02/11 06:33:40;;;;;;;46.47;17.07;;;;;;;;;;5105163;28;20280;-61
2024/02/11 06:36:06;;;;;;;50.45;19.23;;;;;;;;;;5083261;28;20047;-61
2024/02/11 06:38:32;;;;;;;51.28;18.63;;;;;;;;;;5115372;28;20043;-61
2024/02/11 06:40:58;;;;;;;55.70;18.27;;;;;;;;;;5114623;28;20040;-61
2024/02/11 06:43:25;;;;;;;58.47;19.37;;;;;;;;;;5114725;28;20024;-61
2024/02/11 06:45:51;;;;;;;60.60;20.07;;;;;;;;;;5108498;28;20034;-62
2024/02/11 06:48:17;;;;;;;56.20;19.53;;;;;;;;;;5112653;28;20268;-61
2024/02/11 06:50:43;;;;;;;65.97;21.75;;;;;;;;;;5103204;28;20269;-61
2024/02/11 06:53:09;;;;;;;79.95;26.05;;;;;;;;;;5114443;28;20032;-61
2024/02/11 06:55:35;;;;;;;84.23;23.70;;;;;;;;;;5114296;28;20088;-60
2024/02/11 06:58:01;;;;;;;79.70;22.02;;;;;;;;;;5114486;28;20036;-62
2024/02/11 07:00:28;;;;;;;93.43;24.80;;;;;;;;;;5114822;28;20032;-61
2024/02/11 07:02:54;;;;;;;80.90;26.00;;;;;;;;;;5103503;28;20291;-61
2024/02/11 07:05:19;;;;;;;81.50;25.30;;;;;;;;;;5094977;28;20509;-61
2024/02/11 07:07:45;;;;;;;99.20;25.15;;;;;;;;;;5123841;28;20039;-61
2024/02/11 07:10:11;;;;;;;78.28;23.00;;;;;;;;;;5114372;28;20032;-61
2024/02/11 07:12:38;;;;;;;82.13;25.10;;;;;;;;;;5102335;28;20095;-61
2024/02/11 07:15:04;;;;;;;85.68;23.95;;;;;;;;;;5106331;28;20032;-62
2024/02/11 07:17:30;;;;;;;;;;;;;;;;;;5110877;28;20056;-61
2024/02/11 07:19:55;;;;;;;93.27;23.27;;;;;;;;;;5108055;28;19908;-61
2024/02/11 07:22:21;;;;;;;94.20;23.27;;;;;;;;;;5114346;28;20075;-61
2024/02/11 07:24:47;;;;;;;69.10;21.52;;;;;;;;;;5109543;28;20261;-61
2024/02/11 07:27:13;;;;;;;80.30;20.50;;;;;;;;;;5111217;28;20050;-61
2024/02/11 07:29:39;;;;;;;;;;;;;;;;;;5113923;28;20112;-62
2024/02/11 07:32:04;;;;;;;77.50;20.83;;;;;;;;;;5117105;28;19912;-62
2024/02/11 07:34:30;;;;;;;86.40;21.33;;;;;;;;;;5110094;28;20096;-61
2024/02/11 07:36:56;;;;;;;86.60;18.87;;;;;;;;;;5110342;28;20050;-62
2024/02/11 07:39:21;;;;;;;;;;;;;;;;;;5119828;28;20039;-62
2024/02/11 07:41:47;;;;;;;75.50;18.80;;;;;;;;;;5124974;28;19908;-62
2024/02/11 07:44:13;;;;;;;66.53;17.65;;;;;;;;;;5113476;28;20057;-61
2024/02/11 07:46:39;;;;;;;90.37;21.30;;;;;;;;;;5116702;28;20028;-62
2024/02/11 07:49:04;;;;;;;84.70;20.03;;;;;;;;;;5102716;28;20353;-63
2024/02/11 07:51:30;;;;;;;78.00;19.27;;;;;;;;;;5124373;28;20036;-62
2024/02/11 07:53:55;;;;;;;83.30;21.13;;;;;;;;;;5117718;28;20035;-62
2024/02/11 07:56:21;;;;;;;81.60;19.93;;;;;;;;;;5117160;28;20272;-62
2024/02/11 07:58:46;;;;;;;87.57;19.87;;;;;;;;;;5117323;28;20264;-62
2024/02/11 08:01:14;;;;;;;83.60;19.87;;;;;;;;;;5115980;28;20261;-63
2024/02/11 08:03:39;;;;;;;74.07;19.23;;;;;;;;;;5102082;28;20261;-63
2024/02/11 08:06:09;;;;;;;76.87;19.87;;;;;;;;;;5118350;28;20047;-63
2024/02/11 08:08:38;;;;;;;81.00;20.20;;;;;;;;;;5122290;28;20103;-61
2024/02/11 08:11:06;;;;;;;74.80;20.33;;;;;;;;;;5107941;28;20279;-61
2024/02/11 08:13:32;;;;;;;72.27;20.10;;;;;;;;;;5110693;28;20289;-61
2024/02/11 08:16:03;;;;;;;89.40;22.88;;;;;;;;;;5121125;28;20273;-62
2024/02/11 08:18:29;;;;;;;81.37;21.37;;;;;;;;;;5106652;28;20015;-61
2024/02/11 08:20:56;;;;;;;79.20;21.92;;;;;;;;;;5126216;28;20271;-61
2024/02/11 08:23:23;;;;;;;72.87;21.23;;;;;;;;;;5123170;28;20052;-62
2024/02/11 08:25:49;;;;;;;75.63;22.80;;;;;;;;;;5111608;28;20261;-61
2024/02/11 08:28:15;;;;;;;78.47;23.13;;;;;;;;;;5110128;28;20272;-61
2024/02/11 08:30:40;;;;;;;72.07;20.17;;;;;;;;;;5121292;28;20032;-62
2024/02/11 08:33:05;;;;;;;76.47;21.60;;;;;;;;;;5112435;28;20277;-61
2024/02/11 08:35:32;;;;;;;78.53;21.33;;;;;;;;;;5113597;28;20035;-62
2024/02/11 08:37:58;;;;;;;71.83;21.00;;;;;;;;;;5109831;28;20023;-61
2024/02/11 08:40:24;;;;;;;70.13;20.80;;;;;;;;;;5116374;28;20269;-61
2024/02/11 08:42:50;;;;;;;73.38;23.48;;;;;;;;;;5106801;28;20024;-61
2024/02/11 08:45:15;;;;;;;72.87;20.13;;;;;;;;;;5103844;28;20063;-62
2024/02/11 08:47:41;;;;;;;77.40;20.63;;;;;;;;;;5115082;28;20031;-61
2024/02/11 08:50:07;;;;;;;63.77;22.13;;;;;;;;;;5110206;28;20070;-62
2024/02/11 08:52:33;;;;;;;64.88;23.40;;;;;;;;;;5107670;28;20086;-62
2024/02/11 08:54:59;;;;;;;67.32;22.00;;;;;;;;;;5116322;28;20083;-61
2024/02/11 08:57:26;;;;;;;75.95;22.42;;;;;;;;;;5116147;28;20459;-61
2024/02/11 08:59:55;;;;;;;66.27;22.10;;;;;;;;;;5101996;28;20058;-62
2024/02/11 09:02:22;;;;;;;62.47;20.40;;;;;;;;;;5120982;28;20263;-61
2024/02/11 09:04:48;;;;;;;67.53;24.90;;;;;;;;;;5111079;28;20249;-61
2024/02/11 09:07:13;;;;;;;73.20;23.03;;;;;;;;;;5115831;28;20267;-61
2024/02/11 09:09:39;;;;;;;63.70;23.47;;;;;;;;;;5115549;28;20340;-61
2024/02/11 09:12:05;;;;;;;73.23;24.07;;;;;;;;;;5116898;28;20040;-61
2024/02/11 09:14:31;;;;;;;67.17;21.87;;;;;;;;;;5106284;28;20257;-61
2024/02/11 09:16:58;;;;;;;66.05;21.35;;;;;;;;;;5121987;27;20271;-61
2024/02/11 09:19:25;;;;;;;67.22;21.13;;;;;;;;;;5114692;28;20019;-61
2024/02/11 09:21:51;;;;;;;57.97;21.47;;;;;;;;;;5109424;28;20028;-61
2024/02/11 09:24:17;;;;;;;52.58;19.98;;;;;;;;;;5109041;28;20389;-61
2024/02/11 09:26:43;;;;;;;59.88;18.63;;;;;;;;;;5113380;28;20111;-61
2024/02/11 09:29:10;;;;;;;58.37;20.43;;;;;;;;;;5106789;28;20039;-60
2024/02/11 09:31:36;;;;;;;59.33;19.00;;;;;;;;;;5115315;28;20035;-60
2024/02/11 09:34:01;;;;;;;55.23;18.93;;;;;;;;;;5112911;28;20279;-62
2024/02/11 09:36:26;;;;;;;68.00;23.60;;;;;;;;;;5107125;28;20024;-61
2024/02/11 09:38:52;;;;;;;52.63;21.30;;;;;;;;;;5115202;28;20036;-62
2024/02/11 09:41:18;;;;;;;68.93;21.70;;;;;;;;;;5108730;28;20066;-61
2024/02/11 09:43:45;;;;;;;60.80;18.27;;;;;;;;;;5125463;28;20036;-61
2024/02/11 09:46:15;;;;;;;56.83;18.20;;;;;;;;;;5122392;28;20059;-61
2024/02/11 09:48:41;;;;;;;56.63;18.50;;;;;;;;;;5115578;28;20252;-61
2024/02/11 09:51:08;;;;;;;51.05;19.80;;;;;;;;;;5113945;28;20307;-61
2024/02/11 09:53:34;;;;;;;58.37;18.40;;;;;;;;;;5094575;28;20039;-60
2024/02/11 09:55:59;;;;;;;57.67;17.80;;;;;;;;;;5108373;28;20273;-61
2024/02/11 09:58:27;;;;;;;53.70;20.02;;;;;;;;;;5114458;28;20035;-61
2024/02/11 10:00:52;;;;;;;54.60;19.00;;;;;;;;;;5116346;28;20039;-61
2024/02/11 10:03:19;;;;;;;49.60;18.23;;;;;;;;;;5121786;28;20265;-62
2024/02/11 10:05:48;;;;;;;49.60;17.33;;;;;;;;;;5115000;28;20038;-60
2024/02/11 10:08:13;;;;;;;55.77;19.33;;;;;;;;;;5114364;28;20248;-61
2024/02/11 10:10:40;;;;;;;53.53;19.30;;;;;;;;;;5114624;28;20292;-61
2024/02/11 10:13:07;;;;;;;48.22;16.73;;;;;;;;;;5108596;28;20315;-61
2024/02/11 10:15:38;;;;;;;50.13;18.03;;;;;;;;;;5108800;28;20024;-61
2024/02/11 10:18:06;;;;;;;43.73;18.00;;;;;;;;;;5107204;28;20351;-60
2024/02/11 10:20:36;;;;;;;43.37;15.57;;;;;;;;;;5120174;28;20328;-60
2024/02/11 10:23:02;;;;;;;53.77;17.80;;;;;;;;;;5107183;28;20293;-61
2024/02/11 10:25:29;;;;;;;39.63;14.97;;;;;;;;;;5099968;28;20267;-61
2024/02/11 10:27:55;;;;;;;46.10;15.97;;;;;;;;;;5111960;28;20271;-60
2024/02/11 10:30:21;;;;;;;31.90;14.18;;;;;;;;;;5116865;28;20252;-60
2024/02/11 10:32:47;;;;;;;43.63;14.85;;;;;;;;;;5125716;28;20065;-60
2024/02/11 10:35:14;;;;;;;33.92;14.70;;;;;;;;;;5117514;28;20110;-62
2024/02/11 10:37:46;;;;;;;43.33;15.73;;;;;;;;;;5108776;28;20038;-61
2024/02/11 10:40:12;;;;;;;37.53;13.17;;;;;;;;;;5114498;28;20264;-60
2024/02/11 10:42:41;;;;;;;44.57;14.60;;;;;;;;;;5110719;28;20268;-61
2024/02/11 10:45:07;;;;;;;39.93;14.87;;;;;;;;;;5103839;28;20341;-62
2024/02/11 10:47:33;;;;;;;39.80;13.60;;;;;;;;;;5106923;28;20281;-61
2024/02/11 10:49:58;;;;;;;40.37;13.83;;;;;;;;;;5104787;28;20292;-61
2024/02/11 10:52:26;;;;;;;42.15;14.05;;;;;;;;;;5109407;28;20086;-61
2024/02/11 10:54:52;;;;;;;28.97;11.77;;;;;;;;;;5114265;28;20039;-60
2024/02/11 10:57:19;;;;;;;37.20;12.57;;;;;;;;;;5113831;28;20296;-61
2024/02/11 10:59:57;;;;;;;40.97;13.47;;;;;;;;;;5116792;28;20267;-61
2024/02/11 11:02:22;;;;;;;;;;;;;;;;;;5112679;28;20269;-61
2024/02/11 11:04:48;;;;;;;41.07;12.27;;;;;;;;;;5120501;28;19915;-61
2024/02/11 11:07:15;;;;;;;36.58;12.00;;;;;;;;;;5111058;28;20024;-60
2024/02/11 11:09:44;;;;;;;32.93;11.87;;;;;;;;;;5111559;28;20061;-61
2024/02/11 11:12:09;;;;;;;43.03;13.77;;;;;;;;;;5124032;28;20330;-61
2024/02/11 11:14:42;;;;;;;31.23;12.83;;;;;;;;;;5116760;28;20260;-59
2024/02/11 11:17:15;;;;;;;48.33;13.47;;;;;;;;;;5112307;28;20268;-62
2024/02/11 11:19:45;;;;;;;31.13;12.37;;;;;;;;;;5116316;28;20265;-61
2024/02/11 11:22:11;;;;;;;38.47;13.00;;;;;;;;;;5112921;28;20267;-60
2024/02/11 11:24:40;;;;;;;32.55;13.38;;;;;;;;;;5100453;28;20320;-60
2024/02/11 11:27:05;;;;;;;38.70;12.50;;;;;;;;;;5119493;28;20044;-60
2024/02/11 11:29:32;;;;;;;44.40;14.57;;;;;;;;;;5128279;27;20272;-61
2024/02/11 11:31:58;;;;;;;57.73;15.33;;;;;;;;;;5111215;28;20046;-61
2024/02/11 11:34:25;;;;;;;44.75;13.68;;;;;;;;;;5112357;28;20254;-61
2024/02/11 11:36:51;;;;;;;40.03;13.70;;;;;;;;;;5112057;28;20091;-61
2024/02/11 11:39:18;;;;;;;45.33;13.57;;;;;;;;;;5103685;28;20252;-60
2024/02/11 11:41:44;;;;;;;44.10;14.17;;;;;;;;;;5117301;28;20032;-61
2024/02/11 11:44:10;;;;;;;54.50;14.95;;;;;;;;;;5118731;28;20325;-61
2024/02/11 11:46:36;;;;;;;40.30;14.47;;;;;;;;;;5106713;28;20028;-61
2024/02/11 11:49:02;;;;;;;42.47;14.27;;;;;;;;;;5113731;28;20272;-61
2024/02/11 11:51:28;;;;;;;31.85;12.93;;;;;;;;;;5114919;28;20031;-61
2024/02/11 11:53:54;;;;;;;36.97;14.57;;;;;;;;;;5119945;28;20133;-61
2024/02/11 11:56:20;;;;;;;42.50;13.68;;;;;;;;;;5116619;28;20202;-61
2024/02/11 11:58:50;;;;;;;32.40;13.05;;;;;;;;;;5108025;28;20096;-61
2024/02/11 12:01:17;;;;;;;39.83;14.90;;;;;;;;;;5111064;28;20035;-61
2024/02/11 12:03:43;;;;;;;35.40;15.07;;;;;;;;;;5121562;28;20268;-61
2024/02/11 12:06:08;;;;;;;45.65;15.38;;;;;;;;;;5122034;28;20062;-61
2024/02/11 12:08:34;;;;;;;43.35;14.48;;;;;;;;;;5103710;28;20029;-61
2024/02/11 12:11:00;;;;;;;48.47;15.57;;;;;;;;;;5110419;28;20047;-62
2024/02/11 12:13:26;;;;;;;42.28;15.25;;;;;;;;;;5105192;28;20062;-60
2024/02/11 12:15:53;;;;;;;38.92;14.38;;;;;;;;;;5122556;28;20028;-61
2024/02/11 12:18:18;;;;;;;36.80;14.70;;;;;;;;;;5096477;28;20029;-60
2024/02/11 12:20:44;;;;;;;38.78;15.02;;;;;;;;;;5104323;28;20280;-60
2024/02/11 12:23:14;;;;;;;36.92;16.58;;;;;;;;;;5101511;28;20039;-60
2024/02/11 12:25:40;;;;;;;47.27;15.43;;;;;;;;;;5115921;28;20125;-61
2024/02/11 12:28:09;;;;;;;41.28;15.88;;;;;;;;;;5109744;28;20332;-61
2024/02/11 12:30:38;;;;;;;39.57;14.93;;;;;;;;;;5106660;28;20035;-60
2024/02/11 12:33:03;;;;;;;41.73;14.73;;;;;;;;;;5120726;28;20284;-61
2024/02/11 12:35:29;;;;;;;38.72;14.60;;;;;;;;;;5111707;28;20282;-61
2024/02/11 12:37:56;;;;;;;38.45;12.98;;;;;;;;;;5109704;28;20028;-61
2024/02/11 12:40:23;;;;;;;42.67;14.40;;;;;;;;;;5109391;28;20024;-61
2024/02/11 12:42:57;;;;;;;42.63;12.32;;;;;;;;;;5115996;28;20287;-61
2024/02/11 12:45:23;;;;;;;29.63;12.20;;;;;;;;;;5118293;28;20032;-61
2024/02/11 12:47:49;;;;;;;28.53;11.30;;;;;;;;;;5114341;28;20296;-61
2024/02/11 12:50:18;;;;;;;31.23;11.60;;;;;;;;;;5098042;28;20257;-61
2024/02/11 12:52:44;;;;;;;32.53;11.57;;;;;;;;;;5105454;28;20035;-61
2024/02/11 12:55:10;;;;;;;43.63;11.25;;;;;;;;;;5116248;28;20320;-61
2024/02/11 12:57:35;;;;;;;27.02;11.15;;;;;;;;;;5105492;28;20062;-59
2024/02/11 13:00:00;;;;;;;26.30;9.73;;;;;;;;;;5116109;28;20035;-62
2024/02/11 13:02:26;;;;;;;26.30;9.77;;;;;;;;;;5116068;28;20058;-60
2024/02/11 13:04:52;;;;;;;36.67;10.52;;;;;;;;;;5110677;28;20054;-61
2024/02/11 13:07:17;;;;;;;35.67;11.05;;;;;;;;;;5107858;28;20067;-61
2024/02/11 13:09:43;;;;;;;31.67;10.03;;;;;;;;;;5117038;28;20028;-62
2024/02/11 13:12:08;;;;;;;35.13;11.27;;;;;;;;;;5107673;28;20280;-61
2024/02/11 13:14:34;;;;;;;32.90;11.13;;;;;;;;;;5116953;28;20024;-61
2024/02/11 13:16:59;;;;;;;31.60;10.47;;;;;;;;;;5117330;28;20074;-62
2024/02/11 13:19:25;;;;;;;29.67;10.30;;;;;;;;;;5112007;28;20024;-61
2024/02/11 13:21:51;;;;;;;34.97;10.73;;;;;;;;;;5105278;28;20089;-62
2024/02/11 13:24:17;;;;;;;32.42;10.70;;;;;;;;;;5114523;28;20024;-62
2024/02/11 13:26:43;;;;;;;33.25;12.98;;;;;;;;;;5110727;28;20095;-62
2024/02/11 13:29:09;;;;;;;43.67;11.37;;;;;;;;;;5114069;28;20043;-62
2024/02/11 13:31:35;;;;;;;24.10;9.27;;;;;;;;;;5109439;28;20502;-62
2024/02/11 13:34:02;;;;;;;28.17;9.90;;;;;;;;;;5107359;28;20028;-60
2024/02/11 13:36:30;;;;;;;21.00;9.00;;;;;;;;;;5120356;28;20054;-60
2024/02/11 13:38:55;;;;;;;21.67;8.00;;;;;;;;;;5112125;28;20032;-61
2024/02/11 13:41:21;;;;;;;33.13;8.87;;;;;;;;;;5111248;28;20268;-62
2024/02/11 13:43:46;;;;;;;23.27;9.80;;;;;;;;;;5108170;28;20035;-62
2024/02/11 13:46:12;;;;;;;23.57;9.10;;;;;;;;;;5116512;28;20099;-62
2024/02/11 13:48:41;;;;;;;22.52;9.40;;;;;;;;;;5111555;28;20808;-60
2024/02/11 13:51:09;;;;;;;29.63;10.07;;;;;;;;;;5107086;28;20056;-61
2024/02/11 13:53:38;;;;;;;24.13;9.90;;;;;;;;;;5112422;28;20268;-60
2024/02/11 13:56:06;;;;;;;35.47;11.07;;;;;;;;;;5117139;28;20341;-60
2024/02/11 13:58:32;;;;;;;34.07;10.70;;;;;;;;;;5109027;28;20298;-61
2024/02/11 14:01:00;;;;;;;33.97;10.40;;;;;;;;;;5100668;28;20289;-61
2024/02/11 14:03:25;;;;;;;24.93;9.27;;;;;;;;;;5103650;28;20281;-60
2024/02/11 14:05:52;;;;;;;25.65;9.63;;;;;;;;;;5114296;28;20343;-60
2024/02/11 14:08:18;;;;;;;22.55;9.55;;;;;;;;;;5105722;28;20028;-60
2024/02/11 14:10:45;;;;;;;20.77;9.27;;;;;;;;;;5111136;28;20041;-61
2024/02/11 14:13:11;;;;;;;26.90;9.53;;;;;;;;;;5113972;28;20046;-61
2024/02/11 14:15:39;;;;;;;23.70;10.47;;;;;;;;;;5110021;28;20263;-61